sensor_id;sensor_type;location;lat;lon;timestamp;P1;durP1;ratioP1;P2;durP2;ratioP2
14377;SDS011;7272;53.668;9.578;2024-01-11T00:00:10;20.47;;;16.57;;
14377;SDS011;7272;53.668;9.578;2024-01-11T00:03:12;27.70;;;18.57;;
14377;SDS011;7272;53.668;9.578;2024-01-11T00:06:13;21.13;;;15.73;;
14377;SDS011;7272;53.668;9.578;2024-01-11T00:09:14;20.77;;;15.77;;
14377;SDS011;7272;53.668;9.578;2024-01-11T00:12:16;18.47;;;14.90;;
14377;SDS011;7272;53.668;9.578;2024-01-11T00:15:17;19.57;;;14.70;;
14377;SDS011;7272;53.668;9.578;2024-01-11T00:18:18;21.37;;;15.93;;
14377;SDS011;7272;53.668;9.578;2024-01-11T00:21:20;26.17;;;17.97;;
14377;SDS011;7272;53.668;9.578;2024-01-11T00:24:21;21.63;;;17.23;;
14377;SDS011;7272;53.668;9.578;2024-01-11T00:27:23;27.33;;;19.43;;
14377;SDS011;7272;53.668;9.578;2024-01-11T00:30:24;24.60;;;17.13;;
14377;SDS011;7272;53.668;9.578;2024-01-11T00:33:25;16.90;;;13.23;;
14377;SDS011;7272;53.668;9.578;2024-01-11T00:36:26;22.27;;;16.60;;
14377;SDS011;7272;53.668;9.578;2024-01-11T00:39:28;21.77;;;16.20;;
14377;SDS011;7272;53.668;9.578;2024-01-11T00:42:30;18.90;;;15.27;;
14377;SDS011;7272;53.668;9.578;2024-01-11T00:45:31;23.70;;;17.10;;
14377;SDS011;7272;53.668;9.578;2024-01-11T00:48:32;17.00;;;14.20;;
14377;SDS011;7272;53.668;9.578;2024-01-11T00:51:34;20.30;;;14.60;;
14377;SDS011;7272;53.668;9.578;2024-01-11T00:54:35;20.53;;;15.57;;
14377;SDS011;7272;53.668;9.578;2024-01-11T00:57:37;24.10;;;17.63;;
14377;SDS011;7272;53.668;9.578;2024-01-11T01:00:38;27.07;;;18.60;;
14377;SDS011;7272;53.668;9.578;2024-01-11T01:03:39;22.10;;;16.67;;
14377;SDS011;7272;53.668;9.578;2024-01-11T01:06:40;21.43;;;16.50;;
14377;SDS011;7272;53.668;9.578;2024-01-11T01:09:42;23.87;;;16.93;;
14377;SDS011;7272;53.668;9.578;2024-01-11T01:12:44;26.07;;;18.60;;
14377;SDS011;7272;53.668;9.578;2024-01-11T01:15:45;26.70;;;18.67;;
14377;SDS011;7272;53.668;9.578;2024-01-11T01:18:46;21.43;;;16.80;;
14377;SDS011;7272;53.668;9.578;2024-01-11T01:21:48;24.43;;;17.07;;
14377;SDS011;7272;53.668;9.578;2024-01-11T01:24:49;28.63;;;19.43;;
14377;SDS011;7272;53.668;9.578;2024-01-11T01:27:51;33.13;;;22.40;;
14377;SDS011;7272;53.668;9.578;2024-01-11T01:30:52;28.97;;;21.23;;
14377;SDS011;7272;53.668;9.578;2024-01-11T01:33:53;25.50;;;18.07;;
14377;SDS011;7272;53.668;9.578;2024-01-11T01:36:54;29.87;;;20.90;;
14377;SDS011;7272;53.668;9.578;2024-01-11T01:39:55;28.67;;;19.93;;
14377;SDS011;7272;53.668;9.578;2024-01-11T01:42:58;30.03;;;20.03;;
14377;SDS011;7272;53.668;9.578;2024-01-11T01:46:00;25.13;;;19.20;;
14377;SDS011;7272;53.668;9.578;2024-01-11T01:49:01;25.13;;;17.37;;
14377;SDS011;7272;53.668;9.578;2024-01-11T01:52:03;27.73;;;19.80;;
14377;SDS011;7272;53.668;9.578;2024-01-11T01:55:06;23.77;;;18.03;;
14377;SDS011;7272;53.668;9.578;2024-01-11T01:58:10;28.50;;;18.93;;
14377;SDS011;7272;53.668;9.578;2024-01-11T02:01:12;23.77;;;17.53;;
14377;SDS011;7272;53.668;9.578;2024-01-11T02:04:15;22.17;;;15.90;;
14377;SDS011;7272;53.668;9.578;2024-01-11T02:07:17;19.33;;;14.97;;
14377;SDS011;7272;53.668;9.578;2024-01-11T02:10:19;23.93;;;16.83;;
14377;SDS011;7272;53.668;9.578;2024-01-11T02:13:21;23.23;;;16.63;;
14377;SDS011;7272;53.668;9.578;2024-01-11T02:16:23;24.13;;;17.50;;
14377;SDS011;7272;53.668;9.578;2024-01-11T02:19:25;23.67;;;16.87;;
14377;SDS011;7272;53.668;9.578;2024-01-11T02:22:28;25.93;;;18.07;;
14377;SDS011;7272;53.668;9.578;2024-01-11T02:25:33;26.07;;;17.30;;
14377;SDS011;7272;53.668;9.578;2024-01-11T02:28:34;31.93;;;19.40;;
14377;SDS011;7272;53.668;9.578;2024-01-11T02:31:36;34.73;;;21.20;;
14377;SDS011;7272;53.668;9.578;2024-01-11T02:34:37;32.13;;;20.27;;
14377;SDS011;7272;53.668;9.578;2024-01-11T02:37:38;39.27;;;22.83;;
14377;SDS011;7272;53.668;9.578;2024-01-11T02:40:40;29.03;;;19.50;;
14377;SDS011;7272;53.668;9.578;2024-01-11T02:43:46;31.53;;;19.77;;
14377;SDS011;7272;53.668;9.578;2024-01-11T02:46:47;34.17;;;20.97;;
14377;SDS011;7272;53.668;9.578;2024-01-11T02:49:49;27.93;;;19.10;;
14377;SDS011;7272;53.668;9.578;2024-01-11T02:52:50;31.67;;;19.80;;
14377;SDS011;7272;53.668;9.578;2024-01-11T02:55:52;30.43;;;18.83;;
14377;SDS011;7272;53.668;9.578;2024-01-11T02:58:53;26.97;;;18.50;;
14377;SDS011;7272;53.668;9.578;2024-01-11T03:01:55;25.67;;;18.17;;
14377;SDS011;7272;53.668;9.578;2024-01-11T03:04:56;28.77;;;19.07;;
14377;SDS011;7272;53.668;9.578;2024-01-11T03:07:57;34.40;;;21.30;;
14377;SDS011;7272;53.668;9.578;2024-01-11T03:10:59;24.77;;;17.47;;
14377;SDS011;7272;53.668;9.578;2024-01-11T03:14:00;30.23;;;20.47;;
14377;SDS011;7272;53.668;9.578;2024-01-11T03:17:03;26.17;;;19.27;;
14377;SDS011;7272;53.668;9.578;2024-01-11T03:20:05;25.80;;;19.27;;
14377;SDS011;7272;53.668;9.578;2024-01-11T03:23:07;24.90;;;16.93;;
14377;SDS011;7272;53.668;9.578;2024-01-11T03:26:12;25.57;;;19.30;;
14377;SDS011;7272;53.668;9.578;2024-01-11T03:29:14;25.03;;;18.90;;
14377;SDS011;7272;53.668;9.578;2024-01-11T03:32:15;28.50;;;18.53;;
14377;SDS011;7272;53.668;9.578;2024-01-11T03:35:17;24.53;;;18.13;;
14377;SDS011;7272;53.668;9.578;2024-01-11T03:38:19;23.87;;;17.70;;
14377;SDS011;7272;53.668;9.578;2024-01-11T03:41:20;32.20;;;20.40;;
14377;SDS011;7272;53.668;9.578;2024-01-11T03:44:22;32.37;;;22.07;;
14377;SDS011;7272;53.668;9.578;2024-01-11T03:47:23;29.03;;;19.67;;
14377;SDS011;7272;53.668;9.578;2024-01-11T03:50:24;26.70;;;18.13;;
14377;SDS011;7272;53.668;9.578;2024-01-11T03:53:25;23.17;;;15.80;;
14377;SDS011;7272;53.668;9.578;2024-01-11T03:56:27;19.30;;;14.67;;
14377;SDS011;7272;53.668;9.578;2024-01-11T03:59:28;17.37;;;12.20;;
14377;SDS011;7272;53.668;9.578;2024-01-11T04:02:29;17.60;;;12.80;;
14377;SDS011;7272;53.668;9.578;2024-01-11T04:05:31;15.83;;;12.10;;
14377;SDS011;7272;53.668;9.578;2024-01-11T04:08:32;14.90;;;11.10;;
14377;SDS011;7272;53.668;9.578;2024-01-11T04:11:34;13.70;;;10.77;;
14377;SDS011;7272;53.668;9.578;2024-01-11T04:14:37;10.77;;;9.10;;
14377;SDS011;7272;53.668;9.578;2024-01-11T04:17:39;11.53;;;9.43;;
14377;SDS011;7272;53.668;9.578;2024-01-11T04:20:40;12.07;;;8.97;;
14377;SDS011;7272;53.668;9.578;2024-01-11T04:23:41;14.57;;;9.23;;
14377;SDS011;7272;53.668;9.578;2024-01-11T04:26:43;10.17;;;7.70;;
14377;SDS011;7272;53.668;9.578;2024-01-11T04:29:45;10.93;;;7.80;;
14377;SDS011;7272;53.668;9.578;2024-01-11T04:32:46;9.97;;;6.97;;
14377;SDS011;7272;53.668;9.578;2024-01-11T04:35:47;11.97;;;8.17;;
14377;SDS011;7272;53.668;9.578;2024-01-11T04:38:48;9.77;;;6.73;;
14377;SDS011;7272;53.668;9.578;2024-01-11T04:41:50;10.27;;;6.67;;
14377;SDS011;7272;53.668;9.578;2024-01-11T04:44:51;11.53;;;7.13;;
14377;SDS011;7272;53.668;9.578;2024-01-11T04:47:53;8.97;;;6.87;;
14377;SDS011;7272;53.668;9.578;2024-01-11T04:50:54;9.00;;;6.33;;
14377;SDS011;7272;53.668;9.578;2024-01-11T04:53:55;10.00;;;6.63;;
14377;SDS011;7272;53.668;9.578;2024-01-11T04:56:57;8.73;;;6.63;;
14377;SDS011;7272;53.668;9.578;2024-01-11T04:59:59;9.83;;;7.00;;
14377;SDS011;7272;53.668;9.578;2024-01-11T05:03:00;10.53;;;6.97;;
14377;SDS011;7272;53.668;9.578;2024-01-11T05:06:01;10.70;;;6.60;;
14377;SDS011;7272;53.668;9.578;2024-01-11T05:09:02;8.87;;;5.43;;
14377;SDS011;7272;53.668;9.578;2024-01-11T05:12:06;8.43;;;5.47;;
14377;SDS011;7272;53.668;9.578;2024-01-11T05:15:07;10.17;;;5.67;;
14377;SDS011;7272;53.668;9.578;2024-01-11T05:18:09;10.67;;;5.57;;
14377;SDS011;7272;53.668;9.578;2024-01-11T05:21:11;11.23;;;5.93;;
14377;SDS011;7272;53.668;9.578;2024-01-11T05:24:12;16.00;;;7.73;;
14377;SDS011;7272;53.668;9.578;2024-01-11T05:27:14;15.23;;;7.97;;
14377;SDS011;7272;53.668;9.578;2024-01-11T05:30:16;13.23;;;7.57;;
14377;SDS011;7272;53.668;9.578;2024-01-11T05:33:17;18.47;;;8.20;;
14377;SDS011;7272;53.668;9.578;2024-01-11T05:36:18;23.53;;;10.40;;
14377;SDS011;7272;53.668;9.578;2024-01-11T05:39:19;18.70;;;9.13;;
14377;SDS011;7272;53.668;9.578;2024-01-11T05:42:22;16.63;;;8.67;;
14377;SDS011;7272;53.668;9.578;2024-01-11T05:45:23;15.97;;;8.27;;
14377;SDS011;7272;53.668;9.578;2024-01-11T05:48:24;15.70;;;7.63;;
14377;SDS011;7272;53.668;9.578;2024-01-11T05:51:26;16.90;;;8.50;;
14377;SDS011;7272;53.668;9.578;2024-01-11T05:54:27;19.00;;;8.57;;
14377;SDS011;7272;53.668;9.578;2024-01-11T05:57:29;14.63;;;7.73;;
14377;SDS011;7272;53.668;9.578;2024-01-11T06:00:30;13.80;;;7.63;;
14377;SDS011;7272;53.668;9.578;2024-01-11T06:03:31;12.23;;;6.70;;
14377;SDS011;7272;53.668;9.578;2024-01-11T06:06:34;16.30;;;8.93;;
14377;SDS011;7272;53.668;9.578;2024-01-11T06:09:35;14.67;;;8.17;;
14377;SDS011;7272;53.668;9.578;2024-01-11T06:12:37;11.97;;;6.60;;
14377;SDS011;7272;53.668;9.578;2024-01-11T06:15:38;7.07;;;5.10;;
14377;SDS011;7272;53.668;9.578;2024-01-11T06:18:39;10.23;;;6.00;;
14377;SDS011;7272;53.668;9.578;2024-01-11T06:21:40;6.87;;;4.10;;
14377;SDS011;7272;53.668;9.578;2024-01-11T06:24:42;4.97;;;3.80;;
14377;SDS011;7272;53.668;9.578;2024-01-11T06:27:43;3.53;;;2.97;;
14377;SDS011;7272;53.668;9.578;2024-01-11T06:30:45;4.50;;;3.37;;
14377;SDS011;7272;53.668;9.578;2024-01-11T06:33:46;3.67;;;2.87;;
14377;SDS011;7272;53.668;9.578;2024-01-11T06:36:47;5.43;;;3.57;;
14377;SDS011;7272;53.668;9.578;2024-01-11T06:39:49;4.27;;;3.13;;
14377;SDS011;7272;53.668;9.578;2024-01-11T06:42:51;4.00;;;2.90;;
14377;SDS011;7272;53.668;9.578;2024-01-11T06:45:53;3.40;;;2.70;;
14377;SDS011;7272;53.668;9.578;2024-01-11T06:48:55;3.50;;;3.10;;
14377;SDS011;7272;53.668;9.578;2024-01-11T06:51:57;3.00;;;2.50;;
14377;SDS011;7272;53.668;9.578;2024-01-11T06:54:58;2.83;;;2.30;;
14377;SDS011;7272;53.668;9.578;2024-01-11T06:58:01;2.60;;;2.37;;
14377;SDS011;7272;53.668;9.578;2024-01-11T07:01:03;3.70;;;3.00;;
14377;SDS011;7272;53.668;9.578;2024-01-11T07:04:05;3.80;;;3.07;;
14377;SDS011;7272;53.668;9.578;2024-01-11T07:07:06;3.80;;;2.77;;
14377;SDS011;7272;53.668;9.578;2024-01-11T07:10:07;2.80;;;2.60;;
14377;SDS011;7272;53.668;9.578;2024-01-11T07:13:09;3.63;;;3.10;;
14377;SDS011;7272;53.668;9.578;2024-01-11T07:16:11;4.07;;;2.73;;
14377;SDS011;7272;53.668;9.578;2024-01-11T07:19:12;5.07;;;3.27;;
14377;SDS011;7272;53.668;9.578;2024-01-11T07:22:13;7.27;;;4.00;;
14377;SDS011;7272;53.668;9.578;2024-01-11T07:25:15;5.23;;;3.20;;
14377;SDS011;7272;53.668;9.578;2024-01-11T07:28:17;5.10;;;3.70;;
14377;SDS011;7272;53.668;9.578;2024-01-11T07:31:20;5.23;;;3.40;;
14377;SDS011;7272;53.668;9.578;2024-01-11T07:34:21;7.23;;;3.67;;
14377;SDS011;7272;53.668;9.578;2024-01-11T07:37:22;3.53;;;3.17;;
14377;SDS011;7272;53.668;9.578;2024-01-11T07:40:25;5.83;;;3.40;;
14377;SDS011;7272;53.668;9.578;2024-01-11T07:43:27;5.93;;;3.30;;
14377;SDS011;7272;53.668;9.578;2024-01-11T07:46:29;7.37;;;4.10;;
14377;SDS011;7272;53.668;9.578;2024-01-11T07:49:30;5.67;;;3.93;;
14377;SDS011;7272;53.668;9.578;2024-01-11T07:52:31;6.97;;;4.03;;
14377;SDS011;7272;53.668;9.578;2024-01-11T07:55:32;7.10;;;3.80;;
14377;SDS011;7272;53.668;9.578;2024-01-11T07:58:34;6.23;;;4.20;;
14377;SDS011;7272;53.668;9.578;2024-01-11T08:01:37;6.53;;;4.30;;
14377;SDS011;7272;53.668;9.578;2024-01-11T08:04:38;6.93;;;4.30;;
14377;SDS011;7272;53.668;9.578;2024-01-11T08:07:40;8.90;;;4.67;;
14377;SDS011;7272;53.668;9.578;2024-01-11T08:10:42;11.90;;;5.33;;
14377;SDS011;7272;53.668;9.578;2024-01-11T08:13:44;16.00;;;5.67;;
14377;SDS011;7272;53.668;9.578;2024-01-11T08:16:45;22.87;;;6.43;;
14377;SDS011;7272;53.668;9.578;2024-01-11T08:19:46;9.20;;;4.67;;
14377;SDS011;7272;53.668;9.578;2024-01-11T08:22:47;14.00;;;4.30;;
14377;SDS011;7272;53.668;9.578;2024-01-11T08:25:48;11.73;;;4.53;;
14377;SDS011;7272;53.668;9.578;2024-01-11T08:28:50;9.73;;;4.33;;
14377;SDS011;7272;53.668;9.578;2024-01-11T08:31:51;17.63;;;6.13;;
14377;SDS011;7272;53.668;9.578;2024-01-11T08:34:56;16.67;;;4.93;;
14377;SDS011;7272;53.668;9.578;2024-01-11T08:37:57;13.93;;;5.30;;
14377;SDS011;7272;53.668;9.578;2024-01-11T08:40:58;13.77;;;5.07;;
14377;SDS011;7272;53.668;9.578;2024-01-11T08:44:00;5.97;;;3.83;;
14377;SDS011;7272;53.668;9.578;2024-01-11T08:47:03;11.83;;;5.20;;
14377;SDS011;7272;53.668;9.578;2024-01-11T08:50:04;9.60;;;4.67;;
14377;SDS011;7272;53.668;9.578;2024-01-11T08:53:06;26.83;;;7.20;;
14377;SDS011;7272;53.668;9.578;2024-01-11T08:56:07;17.00;;;5.67;;
14377;SDS011;7272;53.668;9.578;2024-01-11T08:59:09;17.73;;;5.83;;
14377;SDS011;7272;53.668;9.578;2024-01-11T09:02:10;10.80;;;5.30;;
14377;SDS011;7272;53.668;9.578;2024-01-11T09:05:13;16.00;;;7.03;;
14377;SDS011;7272;53.668;9.578;2024-01-11T09:08:15;10.33;;;5.47;;
14377;SDS011;7272;53.668;9.578;2024-01-11T09:11:16;15.07;;;6.80;;
14377;SDS011;7272;53.668;9.578;2024-01-11T09:14:18;11.27;;;6.20;;
14377;SDS011;7272;53.668;9.578;2024-01-11T09:17:19;7.77;;;5.70;;
14377;SDS011;7272;53.668;9.578;2024-01-11T09:20:21;72.53;;;45.30;;
14377;SDS011;7272;53.668;9.578;2024-01-11T09:23:23;20.47;;;14.03;;
14377;SDS011;7272;53.668;9.578;2024-01-11T09:26:24;16.70;;;9.90;;
14377;SDS011;7272;53.668;9.578;2024-01-11T09:29:26;14.53;;;10.23;;
14377;SDS011;7272;53.668;9.578;2024-01-11T09:32:27;12.53;;;8.63;;
14377;SDS011;7272;53.668;9.578;2024-01-11T09:35:29;14.80;;;9.47;;
14377;SDS011;7272;53.668;9.578;2024-01-11T09:38:30;17.63;;;10.87;;
14377;SDS011;7272;53.668;9.578;2024-01-11T09:41:31;15.10;;;11.40;;
14377;SDS011;7272;53.668;9.578;2024-01-11T09:44:33;21.43;;;13.03;;
14377;SDS011;7272;53.668;9.578;2024-01-11T09:47:34;21.83;;;13.47;;
14377;SDS011;7272;53.668;9.578;2024-01-11T09:50:36;26.87;;;14.87;;
14377;SDS011;7272;53.668;9.578;2024-01-11T09:53:39;19.13;;;12.27;;
14377;SDS011;7272;53.668;9.578;2024-01-11T09:56:41;23.77;;;14.10;;
14377;SDS011;7272;53.668;9.578;2024-01-11T09:59:44;19.17;;;12.23;;
14377;SDS011;7272;53.668;9.578;2024-01-11T10:02:46;19.60;;;12.43;;
14377;SDS011;7272;53.668;9.578;2024-01-11T10:05:47;18.87;;;12.90;;
14377;SDS011;7272;53.668;9.578;2024-01-11T10:08:51;21.20;;;12.97;;
14377;SDS011;7272;53.668;9.578;2024-01-11T10:11:52;20.50;;;13.40;;
14377;SDS011;7272;53.668;9.578;2024-01-11T10:14:55;24.53;;;14.73;;
14377;SDS011;7272;53.668;9.578;2024-01-11T10:18:05;20.83;;;14.00;;
14377;SDS011;7272;53.668;9.578;2024-01-11T10:21:07;23.80;;;14.30;;
14377;SDS011;7272;53.668;9.578;2024-01-11T10:24:09;24.03;;;16.00;;
14377;SDS011;7272;53.668;9.578;2024-01-11T10:27:17;24.67;;;15.67;;
14377;SDS011;7272;53.668;9.578;2024-01-11T10:30:20;23.83;;;15.20;;
14377;SDS011;7272;53.668;9.578;2024-01-11T10:33:23;26.70;;;15.93;;
14377;SDS011;7272;53.668;9.578;2024-01-11T10:36:24;25.67;;;15.93;;
14377;SDS011;7272;53.668;9.578;2024-01-11T10:39:26;25.57;;;15.67;;
14377;SDS011;7272;53.668;9.578;2024-01-11T10:42:27;29.37;;;17.53;;
14377;SDS011;7272;53.668;9.578;2024-01-11T10:45:32;31.17;;;18.40;;
14377;SDS011;7272;53.668;9.578;2024-01-11T10:48:38;30.67;;;17.70;;
14377;SDS011;7272;53.668;9.578;2024-01-11T10:51:44;28.93;;;17.43;;
14377;SDS011;7272;53.668;9.578;2024-01-11T10:54:49;31.83;;;18.23;;
14377;SDS011;7272;53.668;9.578;2024-01-11T10:57:52;26.13;;;16.70;;
14377;SDS011;7272;53.668;9.578;2024-01-11T11:00:54;24.97;;;15.97;;
14377;SDS011;7272;53.668;9.578;2024-01-11T11:03:56;28.10;;;17.53;;
14377;SDS011;7272;53.668;9.578;2024-01-11T11:06:58;25.43;;;16.03;;
14377;SDS011;7272;53.668;9.578;2024-01-11T11:10:02;30.30;;;17.27;;
14377;SDS011;7272;53.668;9.578;2024-01-11T11:13:06;28.23;;;17.73;;
14377;SDS011;7272;53.668;9.578;2024-01-11T11:16:09;23.60;;;15.80;;
14377;SDS011;7272;53.668;9.578;2024-01-11T11:19:11;33.17;;;19.77;;
14377;SDS011;7272;53.668;9.578;2024-01-11T11:22:12;30.63;;;18.63;;
14377;SDS011;7272;53.668;9.578;2024-01-11T11:25:23;29.80;;;18.60;;
14377;SDS011;7272;53.668;9.578;2024-01-11T11:28:25;31.03;;;19.60;;
14377;SDS011;7272;53.668;9.578;2024-01-11T11:31:36;27.77;;;17.63;;
14377;SDS011;7272;53.668;9.578;2024-01-11T11:34:42;33.33;;;19.33;;
14377;SDS011;7272;53.668;9.578;2024-01-11T11:37:44;28.40;;;17.83;;
14377;SDS011;7272;53.668;9.578;2024-01-11T11:40:46;34.80;;;19.07;;
14377;SDS011;7272;53.668;9.578;2024-01-11T11:43:48;29.40;;;18.57;;
14377;SDS011;7272;53.668;9.578;2024-01-11T11:46:52;28.73;;;18.37;;
14377;SDS011;7272;53.668;9.578;2024-01-11T11:49:57;33.10;;;19.10;;
14377;SDS011;7272;53.668;9.578;2024-01-11T11:53:03;32.03;;;20.17;;
14377;SDS011;7272;53.668;9.578;2024-01-11T11:56:05;31.60;;;18.60;;
14377;SDS011;7272;53.668;9.578;2024-01-11T11:59:07;28.40;;;17.17;;
14377;SDS011;7272;53.668;9.578;2024-01-11T12:02:09;32.93;;;19.67;;
14377;SDS011;7272;53.668;9.578;2024-01-11T12:05:17;35.90;;;19.93;;
14377;SDS011;7272;53.668;9.578;2024-01-11T12:08:19;33.57;;;19.07;;
14377;SDS011;7272;53.668;9.578;2024-01-11T12:11:21;29.60;;;18.03;;
14377;SDS011;7272;53.668;9.578;2024-01-11T12:14:22;34.17;;;19.80;;
14377;SDS011;7272;53.668;9.578;2024-01-11T12:17:25;40.87;;;21.07;;
14377;SDS011;7272;53.668;9.578;2024-01-11T12:20:28;35.70;;;19.93;;
14377;SDS011;7272;53.668;9.578;2024-01-11T12:23:29;40.20;;;20.67;;
14377;SDS011;7272;53.668;9.578;2024-01-11T12:26:30;30.33;;;18.57;;
14377;SDS011;7272;53.668;9.578;2024-01-11T12:29:32;36.07;;;19.97;;
14377;SDS011;7272;53.668;9.578;2024-01-11T12:32:34;31.57;;;18.80;;
14377;SDS011;7272;53.668;9.578;2024-01-11T12:35:35;29.20;;;17.63;;
14377;SDS011;7272;53.668;9.578;2024-01-11T12:38:37;28.93;;;17.23;;
14377;SDS011;7272;53.668;9.578;2024-01-11T12:41:46;37.63;;;19.80;;
14377;SDS011;7272;53.668;9.578;2024-01-11T12:44:47;34.13;;;19.37;;
14377;SDS011;7272;53.668;9.578;2024-01-11T12:47:51;33.13;;;19.37;;
14377;SDS011;7272;53.668;9.578;2024-01-11T12:50:52;30.90;;;17.87;;
14377;SDS011;7272;53.668;9.578;2024-01-11T12:53:54;33.20;;;19.33;;
14377;SDS011;7272;53.668;9.578;2024-01-11T12:56:58;36.40;;;20.23;;
14377;SDS011;7272;53.668;9.578;2024-01-11T13:00:09;33.83;;;20.13;;
14377;SDS011;7272;53.668;9.578;2024-01-11T13:03:11;29.80;;;18.17;;
14377;SDS011;7272;53.668;9.578;2024-01-11T13:06:14;34.13;;;18.97;;
14377;SDS011;7272;53.668;9.578;2024-01-11T13:09:15;35.67;;;18.63;;
14377;SDS011;7272;53.668;9.578;2024-01-11T13:12:18;25.07;;;16.10;;
14377;SDS011;7272;53.668;9.578;2024-01-11T13:15:21;34.63;;;18.70;;
14377;SDS011;7272;53.668;9.578;2024-01-11T13:18:24;29.33;;;17.50;;
14377;SDS011;7272;53.668;9.578;2024-01-11T13:21:25;32.00;;;18.20;;
14377;SDS011;7272;53.668;9.578;2024-01-11T13:24:26;25.90;;;16.87;;
14377;SDS011;7272;53.668;9.578;2024-01-11T13:27:27;29.93;;;17.80;;
14377;SDS011;7272;53.668;9.578;2024-01-11T13:30:29;33.53;;;18.53;;
14377;SDS011;7272;53.668;9.578;2024-01-11T13:33:31;28.87;;;17.57;;
14377;SDS011;7272;53.668;9.578;2024-01-11T13:36:32;29.87;;;18.03;;
14377;SDS011;7272;53.668;9.578;2024-01-11T13:39:33;24.87;;;16.13;;
14377;SDS011;7272;53.668;9.578;2024-01-11T13:42:34;33.33;;;18.87;;
14377;SDS011;7272;53.668;9.578;2024-01-11T13:45:35;35.00;;;18.90;;
14377;SDS011;7272;53.668;9.578;2024-01-11T13:48:38;32.27;;;18.67;;
14377;SDS011;7272;53.668;9.578;2024-01-11T13:51:39;33.73;;;19.57;;
14377;SDS011;7272;53.668;9.578;2024-01-11T13:54:40;33.53;;;17.73;;
14377;SDS011;7272;53.668;9.578;2024-01-11T13:57:41;29.00;;;16.80;;
14377;SDS011;7272;53.668;9.578;2024-01-11T14:00:43;25.93;;;17.63;;
14377;SDS011;7272;53.668;9.578;2024-01-11T14:03:45;29.13;;;17.97;;
14377;SDS011;7272;53.668;9.578;2024-01-11T14:06:46;29.37;;;17.10;;
14377;SDS011;7272;53.668;9.578;2024-01-11T14:09:47;31.27;;;17.40;;
14377;SDS011;7272;53.668;9.578;2024-01-11T14:12:49;27.13;;;16.47;;
14377;SDS011;7272;53.668;9.578;2024-01-11T14:15:50;28.73;;;16.97;;
14377;SDS011;7272;53.668;9.578;2024-01-11T14:18:52;31.13;;;16.40;;
14377;SDS011;7272;53.668;9.578;2024-01-11T14:21:53;34.27;;;18.10;;
14377;SDS011;7272;53.668;9.578;2024-01-11T14:24:54;33.57;;;18.17;;
14377;SDS011;7272;53.668;9.578;2024-01-11T14:27:55;30.03;;;16.90;;
14377;SDS011;7272;53.668;9.578;2024-01-11T14:30:57;31.63;;;16.63;;
14377;SDS011;7272;53.668;9.578;2024-01-11T14:33:58;34.03;;;18.03;;
14377;SDS011;7272;53.668;9.578;2024-01-11T14:37:00;25.00;;;15.53;;
14377;SDS011;7272;53.668;9.578;2024-01-11T14:40:01;26.67;;;16.83;;
14377;SDS011;7272;53.668;9.578;2024-01-11T14:43:03;37.60;;;19.10;;
14377;SDS011;7272;53.668;9.578;2024-01-11T14:46:04;31.37;;;17.87;;
14377;SDS011;7272;53.668;9.578;2024-01-11T14:49:06;28.30;;;17.10;;
14377;SDS011;7272;53.668;9.578;2024-01-11T14:52:08;33.10;;;16.73;;
14377;SDS011;7272;53.668;9.578;2024-01-11T14:55:09;29.30;;;17.67;;
14377;SDS011;7272;53.668;9.578;2024-01-11T14:58:10;27.10;;;16.43;;
14377;SDS011;7272;53.668;9.578;2024-01-11T15:01:12;29.40;;;16.03;;
14377;SDS011;7272;53.668;9.578;2024-01-11T15:04:14;28.50;;;16.50;;
14377;SDS011;7272;53.668;9.578;2024-01-11T15:07:15;33.10;;;17.13;;
14377;SDS011;7272;53.668;9.578;2024-01-11T15:10:16;38.87;;;18.23;;
14377;SDS011;7272;53.668;9.578;2024-01-11T15:13:18;33.33;;;17.57;;
14377;SDS011;7272;53.668;9.578;2024-01-11T15:16:19;41.03;;;19.70;;
14377;SDS011;7272;53.668;9.578;2024-01-11T15:19:21;27.30;;;15.83;;
14377;SDS011;7272;53.668;9.578;2024-01-11T15:22:22;23.20;;;14.23;;
14377;SDS011;7272;53.668;9.578;2024-01-11T15:25:24;33.93;;;17.20;;
14377;SDS011;7272;53.668;9.578;2024-01-11T15:28:26;25.80;;;14.43;;
14377;SDS011;7272;53.668;9.578;2024-01-11T15:31:28;32.67;;;16.03;;
14377;SDS011;7272;53.668;9.578;2024-01-11T15:34:30;28.50;;;16.00;;
14377;SDS011;7272;53.668;9.578;2024-01-11T15:37:31;33.67;;;17.13;;
14377;SDS011;7272;53.668;9.578;2024-01-11T15:40:33;43.73;;;19.90;;
14377;SDS011;7272;53.668;9.578;2024-01-11T15:43:37;35.57;;;17.33;;
14377;SDS011;7272;53.668;9.578;2024-01-11T15:46:38;37.70;;;17.27;;
14377;SDS011;7272;53.668;9.578;2024-01-11T15:49:41;28.00;;;15.50;;
14377;SDS011;7272;53.668;9.578;2024-01-11T15:52:42;26.47;;;15.87;;
14377;SDS011;7272;53.668;9.578;2024-01-11T15:55:43;27.43;;;15.00;;
14377;SDS011;7272;53.668;9.578;2024-01-11T15:58:44;28.10;;;14.43;;
14377;SDS011;7272;53.668;9.578;2024-01-11T16:01:46;26.57;;;14.90;;
14377;SDS011;7272;53.668;9.578;2024-01-11T16:04:47;23.57;;;13.93;;
14377;SDS011;7272;53.668;9.578;2024-01-11T16:07:49;26.17;;;15.67;;
14377;SDS011;7272;53.668;9.578;2024-01-11T16:10:50;36.73;;;17.20;;
14377;SDS011;7272;53.668;9.578;2024-01-11T16:13:51;31.57;;;16.83;;
14377;SDS011;7272;53.668;9.578;2024-01-11T16:16:52;23.63;;;12.77;;
14377;SDS011;7272;53.668;9.578;2024-01-11T16:19:54;47.33;;;17.33;;
14377;SDS011;7272;53.668;9.578;2024-01-11T16:22:55;25.83;;;12.90;;
14377;SDS011;7272;53.668;9.578;2024-01-11T16:25:56;34.30;;;15.13;;
14377;SDS011;7272;53.668;9.578;2024-01-11T16:28:58;25.77;;;13.20;;
14377;SDS011;7272;53.668;9.578;2024-01-11T16:32:00;25.07;;;13.50;;
14377;SDS011;7272;53.668;9.578;2024-01-11T16:35:02;29.23;;;13.67;;
14377;SDS011;7272;53.668;9.578;2024-01-11T16:38:04;28.70;;;13.50;;
14377;SDS011;7272;53.668;9.578;2024-01-11T16:41:06;52.67;;;17.93;;
14377;SDS011;7272;53.668;9.578;2024-01-11T16:44:08;45.60;;;15.43;;
14377;SDS011;7272;53.668;9.578;2024-01-11T16:47:09;25.83;;;14.07;;
14377;SDS011;7272;53.668;9.578;2024-01-11T16:50:11;21.13;;;12.17;;
14377;SDS011;7272;53.668;9.578;2024-01-11T16:53:12;20.00;;;12.07;;
14377;SDS011;7272;53.668;9.578;2024-01-11T16:56:13;49.63;;;16.00;;
14377;SDS011;7272;53.668;9.578;2024-01-11T16:59:15;35.27;;;14.13;;
14377;SDS011;7272;53.668;9.578;2024-01-11T17:02:16;24.97;;;12.30;;
14377;SDS011;7272;53.668;9.578;2024-01-11T17:05:18;25.47;;;11.90;;
14377;SDS011;7272;53.668;9.578;2024-01-11T17:08:20;28.53;;;14.07;;
14377;SDS011;7272;53.668;9.578;2024-01-11T17:11:22;32.73;;;13.43;;
14377;SDS011;7272;53.668;9.578;2024-01-11T17:14:23;26.57;;;11.17;;
14377;SDS011;7272;53.668;9.578;2024-01-11T17:17:24;23.73;;;12.23;;
14377;SDS011;7272;53.668;9.578;2024-01-11T17:20:26;22.50;;;10.87;;
14377;SDS011;7272;53.668;9.578;2024-01-11T17:23:27;28.57;;;13.50;;
14377;SDS011;7272;53.668;9.578;2024-01-11T17:26:28;22.20;;;11.17;;
14377;SDS011;7272;53.668;9.578;2024-01-11T17:29:30;16.73;;;10.00;;
14377;SDS011;7272;53.668;9.578;2024-01-11T17:32:31;20.83;;;12.00;;
14377;SDS011;7272;53.668;9.578;2024-01-11T17:35:33;23.57;;;10.93;;
14377;SDS011;7272;53.668;9.578;2024-01-11T17:38:34;20.00;;;12.00;;
14377;SDS011;7272;53.668;9.578;2024-01-11T17:41:37;24.47;;;12.50;;
14377;SDS011;7272;53.668;9.578;2024-01-11T17:44:40;20.00;;;12.10;;
14377;SDS011;7272;53.668;9.578;2024-01-11T17:47:41;21.00;;;11.17;;
14377;SDS011;7272;53.668;9.578;2024-01-11T17:50:43;20.97;;;12.30;;
14377;SDS011;7272;53.668;9.578;2024-01-11T17:53:44;28.77;;;13.30;;
14377;SDS011;7272;53.668;9.578;2024-01-11T17:56:46;26.83;;;13.93;;
14377;SDS011;7272;53.668;9.578;2024-01-11T17:59:47;29.33;;;16.00;;
14377;SDS011;7272;53.668;9.578;2024-01-11T18:02:49;24.23;;;13.90;;
14377;SDS011;7272;53.668;9.578;2024-01-11T18:05:51;17.23;;;11.17;;